Terminal Aerodrome Forecast
Issued by NWS

Home | Current Version | Previous Version | Text Only | Print | Product List | Glossary On
Versions: 1 2 3 4 5 6 7 8 9 10 11 12 13 14
000
FTUS43 KIND 291700
TAFBMG
TAF
KBMG 291720Z 2918/3018 19017G25KT P6SM BKN150
     FM292300 20015G23KT P6SM -RA BKN050
     FM300200 24014G20KT P6SM SCT025 BKN040
     FM300600 28008KT P6SM BKN025
     FM301300 29007KT P6SM SCT250=

USA.gov is the U.S. government's official web portal to all federal, state and local government web resources and services.